sensor_id;sensor_type;location;lat;lon;timestamp;temperature;humidity
30999;DHT22;20549;50.042;8.968;2023-03-19T00:01:31;13.50;65.80
30999;DHT22;20549;50.042;8.968;2023-03-19T00:03:57;13.50;65.80
30999;DHT22;20549;50.042;8.968;2023-03-19T00:06:24;13.50;66.00
30999;DHT22;20549;50.042;8.968;2023-03-19T00:08:50;13.50;66.00
30999;DHT22;20549;50.042;8.968;2023-03-19T00:11:17;13.50;66.00
30999;DHT22;20549;50.042;8.968;2023-03-19T00:13:44;13.50;66.00
30999;DHT22;20549;50.042;8.968;2023-03-19T00:16:10;13.50;66.00
30999;DHT22;20549;50.042;8.968;2023-03-19T00:18:37;13.50;66.10
30999;DHT22;20549;50.042;8.968;2023-03-19T00:21:03;13.50;66.00
30999;DHT22;20549;50.042;8.968;2023-03-19T00:23:30;13.50;66.00
30999;DHT22;20549;50.042;8.968;2023-03-19T00:25:57;13.50;66.00
30999;DHT22;20549;50.042;8.968;2023-03-19T00:28:23;13.50;66.00
30999;DHT22;20549;50.042;8.968;2023-03-19T00:30:50;13.40;65.80
30999;DHT22;20549;50.042;8.968;2023-03-19T00:33:16;13.40;65.80
30999;DHT22;20549;50.042;8.968;2023-03-19T00:35:43;13.40;65.80
30999;DHT22;20549;50.042;8.968;2023-03-19T00:38:10;13.30;65.70
30999;DHT22;20549;50.042;8.968;2023-03-19T00:40:36;13.20;65.70
30999;DHT22;20549;50.042;8.968;2023-03-19T00:43:03;13.20;65.90
30999;DHT22;20549;50.042;8.968;2023-03-19T00:45:29;13.10;66.00
30999;DHT22;20549;50.042;8.968;2023-03-19T00:47:56;13.00;66.20
30999;DHT22;20549;50.042;8.968;2023-03-19T00:50:24;12.90;66.30
30999;DHT22;20549;50.042;8.968;2023-03-19T00:52:49;12.90;66.50
30999;DHT22;20549;50.042;8.968;2023-03-19T00:55:16;12.80;66.70
30999;DHT22;20549;50.042;8.968;2023-03-19T00:57:42;12.70;66.70
30999;DHT22;20549;50.042;8.968;2023-03-19T01:00:09;12.70;66.90
30999;DHT22;20549;50.042;8.968;2023-03-19T01:02:36;12.60;66.90
30999;DHT22;20549;50.042;8.968;2023-03-19T01:05:02;12.50;67.00
30999;DHT22;20549;50.042;8.968;2023-03-19T01:07:29;12.50;67.10
30999;DHT22;20549;50.042;8.968;2023-03-19T01:09:55;12.40;67.10
30999;DHT22;20549;50.042;8.968;2023-03-19T01:12:22;12.40;67.30
30999;DHT22;20549;50.042;8.968;2023-03-19T01:14:48;12.30;67.50
30999;DHT22;20549;50.042;8.968;2023-03-19T01:17:15;12.30;67.60
30999;DHT22;20549;50.042;8.968;2023-03-19T01:19:42;12.30;67.80
30999;DHT22;20549;50.042;8.968;2023-03-19T01:22:08;12.20;67.90
30999;DHT22;20549;50.042;8.968;2023-03-19T01:24:35;12.20;68.00
30999;DHT22;20549;50.042;8.968;2023-03-19T01:27:01;12.20;68.10
30999;DHT22;20549;50.042;8.968;2023-03-19T01:29:28;12.20;68.30
30999;DHT22;20549;50.042;8.968;2023-03-19T01:31:55;12.20;68.40
30999;DHT22;20549;50.042;8.968;2023-03-19T01:34:21;12.20;68.50
30999;DHT22;20549;50.042;8.968;2023-03-19T01:36:48;12.20;68.60
30999;DHT22;20549;50.042;8.968;2023-03-19T01:39:14;12.20;68.70
30999;DHT22;20549;50.042;8.968;2023-03-19T01:41:41;12.20;68.80
30999;DHT22;20549;50.042;8.968;2023-03-19T01:44:27;12.20;68.80
30999;DHT22;20549;50.042;8.968;2023-03-19T01:46:52;12.20;68.90
30999;DHT22;20549;50.042;8.968;2023-03-19T01:49:19;12.20;68.90
30999;DHT22;20549;50.042;8.968;2023-03-19T01:51:45;12.20;68.90
30999;DHT22;20549;50.042;8.968;2023-03-19T01:54:13;12.20;69.00
30999;DHT22;20549;50.042;8.968;2023-03-19T01:56:38;12.20;69.10
30999;DHT22;20549;50.042;8.968;2023-03-19T01:59:09;12.10;69.00
30999;DHT22;20549;50.042;8.968;2023-03-19T02:01:35;12.10;69.10
30999;DHT22;20549;50.042;8.968;2023-03-19T02:04:01;12.10;69.20
30999;DHT22;20549;50.042;8.968;2023-03-19T02:06:28;12.10;69.30
30999;DHT22;20549;50.042;8.968;2023-03-19T02:08:54;12.10;69.20
30999;DHT22;20549;50.042;8.968;2023-03-19T02:11:21;12.10;69.30
30999;DHT22;20549;50.042;8.968;2023-03-19T02:13:47;12.10;69.30
30999;DHT22;20549;50.042;8.968;2023-03-19T02:16:14;12.10;69.40
30999;DHT22;20549;50.042;8.968;2023-03-19T02:18:41;12.00;69.40
30999;DHT22;20549;50.042;8.968;2023-03-19T02:21:10;12.00;69.50
30999;DHT22;20549;50.042;8.968;2023-03-19T02:26:22;12.00;69.50
30999;DHT22;20549;50.042;8.968;2023-03-19T02:28:49;11.90;69.40
30999;DHT22;20549;50.042;8.968;2023-03-19T02:31:15;11.90;69.60
30999;DHT22;20549;50.042;8.968;2023-03-19T02:33:41;11.90;69.70
30999;DHT22;20549;50.042;8.968;2023-03-19T02:36:15;11.80;69.90
30999;DHT22;20549;50.042;8.968;2023-03-19T02:38:40;11.80;69.90
30999;DHT22;20549;50.042;8.968;2023-03-19T02:41:07;11.80;70.00
30999;DHT22;20549;50.042;8.968;2023-03-19T02:43:35;11.80;70.10
30999;DHT22;20549;50.042;8.968;2023-03-19T02:46:04;11.70;70.20
30999;DHT22;20549;50.042;8.968;2023-03-19T02:48:30;11.70;70.30
30999;DHT22;20549;50.042;8.968;2023-03-19T02:50:56;11.70;70.50
30999;DHT22;20549;50.042;8.968;2023-03-19T02:53:23;11.60;70.70
30999;DHT22;20549;50.042;8.968;2023-03-19T02:55:49;11.60;70.80
30999;DHT22;20549;50.042;8.968;2023-03-19T02:58:16;11.60;71.00
30999;DHT22;20549;50.042;8.968;2023-03-19T03:00:42;11.60;71.00
30999;DHT22;20549;50.042;8.968;2023-03-19T03:03:09;11.70;71.10
30999;DHT22;20549;50.042;8.968;2023-03-19T03:05:36;11.70;71.10
30999;DHT22;20549;50.042;8.968;2023-03-19T03:08:02;11.70;71.10
30999;DHT22;20549;50.042;8.968;2023-03-19T03:10:29;11.70;71.10
30999;DHT22;20549;50.042;8.968;2023-03-19T03:12:55;11.70;71.10
30999;DHT22;20549;50.042;8.968;2023-03-19T03:15:22;11.80;71.10
30999;DHT22;20549;50.042;8.968;2023-03-19T03:17:49;11.80;71.10
30999;DHT22;20549;50.042;8.968;2023-03-19T03:20:15;11.70;71.00
30999;DHT22;20549;50.042;8.968;2023-03-19T03:22:42;11.80;71.10
30999;DHT22;20549;50.042;8.968;2023-03-19T03:25:09;11.80;71.10
30999;DHT22;20549;50.042;8.968;2023-03-19T03:27:35;11.80;71.10
30999;DHT22;20549;50.042;8.968;2023-03-19T03:30:02;11.80;71.30
30999;DHT22;20549;50.042;8.968;2023-03-19T03:32:28;11.80;71.20
30999;DHT22;20549;50.042;8.968;2023-03-19T03:34:55;11.80;71.30
30999;DHT22;20549;50.042;8.968;2023-03-19T03:37:21;11.80;71.30
30999;DHT22;20549;50.042;8.968;2023-03-19T03:39:48;11.80;71.30
30999;DHT22;20549;50.042;8.968;2023-03-19T03:42:14;11.80;71.30
30999;DHT22;20549;50.042;8.968;2023-03-19T03:44:41;11.80;71.40
30999;DHT22;20549;50.042;8.968;2023-03-19T03:47:08;11.80;71.40
30999;DHT22;20549;50.042;8.968;2023-03-19T03:49:34;11.90;71.40
30999;DHT22;20549;50.042;8.968;2023-03-19T03:52:01;11.90;71.40
30999;DHT22;20549;50.042;8.968;2023-03-19T03:54:27;11.90;71.40
30999;DHT22;20549;50.042;8.968;2023-03-19T03:56:54;11.80;71.40
30999;DHT22;20549;50.042;8.968;2023-03-19T03:59:21;11.80;71.40
30999;DHT22;20549;50.042;8.968;2023-03-19T04:01:47;11.80;71.40
30999;DHT22;20549;50.042;8.968;2023-03-19T04:04:14;11.80;71.50
30999;DHT22;20549;50.042;8.968;2023-03-19T04:06:40;11.70;71.60
30999;DHT22;20549;50.042;8.968;2023-03-19T04:09:07;11.80;71.60
30999;DHT22;20549;50.042;8.968;2023-03-19T04:11:34;11.70;71.70
30999;DHT22;20549;50.042;8.968;2023-03-19T04:14:00;11.70;72.00
30999;DHT22;20549;50.042;8.968;2023-03-19T04:16:27;11.70;72.00
30999;DHT22;20549;50.042;8.968;2023-03-19T04:18:53;11.70;72.10
30999;DHT22;20549;50.042;8.968;2023-03-19T04:21:20;11.70;72.10
30999;DHT22;20549;50.042;8.968;2023-03-19T04:23:46;11.70;72.10
30999;DHT22;20549;50.042;8.968;2023-03-19T04:26:13;11.70;72.20
30999;DHT22;20549;50.042;8.968;2023-03-19T04:28:40;11.70;72.20
30999;DHT22;20549;50.042;8.968;2023-03-19T04:31:07;11.70;72.30
30999;DHT22;20549;50.042;8.968;2023-03-19T04:33:33;11.70;72.40
30999;DHT22;20549;50.042;8.968;2023-03-19T04:35:59;11.70;72.50
30999;DHT22;20549;50.042;8.968;2023-03-19T04:38:26;11.70;72.50
30999;DHT22;20549;50.042;8.968;2023-03-19T04:40:53;11.70;72.70
30999;DHT22;20549;50.042;8.968;2023-03-19T04:43:19;11.70;72.80
30999;DHT22;20549;50.042;8.968;2023-03-19T04:45:46;11.70;72.80
30999;DHT22;20549;50.042;8.968;2023-03-19T04:48:12;11.80;72.80
30999;DHT22;20549;50.042;8.968;2023-03-19T04:50:39;11.80;72.90
30999;DHT22;20549;50.042;8.968;2023-03-19T04:53:06;11.80;72.90
30999;DHT22;20549;50.042;8.968;2023-03-19T04:55:32;11.80;72.90
30999;DHT22;20549;50.042;8.968;2023-03-19T04:57:59;11.90;73.00
30999;DHT22;20549;50.042;8.968;2023-03-19T05:00:25;11.90;73.00
30999;DHT22;20549;50.042;8.968;2023-03-19T05:02:52;11.90;73.00
30999;DHT22;20549;50.042;8.968;2023-03-19T05:05:18;11.90;72.90
30999;DHT22;20549;50.042;8.968;2023-03-19T05:07:45;11.90;72.80
30999;DHT22;20549;50.042;8.968;2023-03-19T05:10:12;11.90;72.80
30999;DHT22;20549;50.042;8.968;2023-03-19T05:12:38;11.90;72.80
30999;DHT22;20549;50.042;8.968;2023-03-19T05:15:05;12.00;72.90
30999;DHT22;20549;50.042;8.968;2023-03-19T05:17:31;12.00;72.90
30999;DHT22;20549;50.042;8.968;2023-03-19T05:19:58;12.00;72.90
30999;DHT22;20549;50.042;8.968;2023-03-19T05:22:25;12.00;72.90
30999;DHT22;20549;50.042;8.968;2023-03-19T05:24:51;12.00;72.90
30999;DHT22;20549;50.042;8.968;2023-03-19T05:27:18;12.00;72.90
30999;DHT22;20549;50.042;8.968;2023-03-19T05:29:44;12.00;72.90
30999;DHT22;20549;50.042;8.968;2023-03-19T05:32:11;12.10;72.90
30999;DHT22;20549;50.042;8.968;2023-03-19T05:34:38;12.10;72.90
30999;DHT22;20549;50.042;8.968;2023-03-19T05:37:04;12.10;72.90
30999;DHT22;20549;50.042;8.968;2023-03-19T05:39:31;12.10;72.80
30999;DHT22;20549;50.042;8.968;2023-03-19T05:41:57;12.10;72.80
30999;DHT22;20549;50.042;8.968;2023-03-19T05:44:24;12.00;72.70
30999;DHT22;20549;50.042;8.968;2023-03-19T05:46:50;12.00;72.70
30999;DHT22;20549;50.042;8.968;2023-03-19T05:49:17;12.00;72.70
30999;DHT22;20549;50.042;8.968;2023-03-19T05:51:44;12.00;72.80
30999;DHT22;20549;50.042;8.968;2023-03-19T05:54:10;11.90;72.70
30999;DHT22;20549;50.042;8.968;2023-03-19T05:56:37;11.90;72.80
30999;DHT22;20549;50.042;8.968;2023-03-19T05:59:03;11.90;73.00
30999;DHT22;20549;50.042;8.968;2023-03-19T06:01:30;11.90;73.10
30999;DHT22;20549;50.042;8.968;2023-03-19T06:03:57;11.80;73.20
30999;DHT22;20549;50.042;8.968;2023-03-19T06:06:23;11.90;73.30
30999;DHT22;20549;50.042;8.968;2023-03-19T06:08:50;11.90;73.50
30999;DHT22;20549;50.042;8.968;2023-03-19T06:11:16;11.90;73.50
30999;DHT22;20549;50.042;8.968;2023-03-19T06:13:43;11.80;73.50
30999;DHT22;20549;50.042;8.968;2023-03-19T06:16:10;11.90;73.60
30999;DHT22;20549;50.042;8.968;2023-03-19T06:18:36;11.90;73.70
30999;DHT22;20549;50.042;8.968;2023-03-19T06:21:03;11.90;73.80
30999;DHT22;20549;50.042;8.968;2023-03-19T06:23:29;11.90;73.80
30999;DHT22;20549;50.042;8.968;2023-03-19T06:25:56;12.00;73.90
30999;DHT22;20549;50.042;8.968;2023-03-19T06:28:22;12.00;74.00
30999;DHT22;20549;50.042;8.968;2023-03-19T06:30:49;12.10;73.90
30999;DHT22;20549;50.042;8.968;2023-03-19T06:33:16;12.10;73.90
30999;DHT22;20549;50.042;8.968;2023-03-19T06:35:42;12.10;73.80
30999;DHT22;20549;50.042;8.968;2023-03-19T06:38:09;12.20;73.80
30999;DHT22;20549;50.042;8.968;2023-03-19T06:40:35;12.20;73.80
30999;DHT22;20549;50.042;8.968;2023-03-19T06:43:02;12.30;73.90
30999;DHT22;20549;50.042;8.968;2023-03-19T06:45:29;12.30;73.90
30999;DHT22;20549;50.042;8.968;2023-03-19T06:47:55;12.40;74.00
30999;DHT22;20549;50.042;8.968;2023-03-19T06:50:22;12.40;74.00
30999;DHT22;20549;50.042;8.968;2023-03-19T06:52:48;12.50;74.00
30999;DHT22;20549;50.042;8.968;2023-03-19T06:55:15;12.50;74.00
30999;DHT22;20549;50.042;8.968;2023-03-19T06:57:41;12.60;74.00
30999;DHT22;20549;50.042;8.968;2023-03-19T07:00:10;12.70;74.00
30999;DHT22;20549;50.042;8.968;2023-03-19T07:02:37;12.80;74.00
30999;DHT22;20549;50.042;8.968;2023-03-19T07:05:04;12.80;73.90
30999;DHT22;20549;50.042;8.968;2023-03-19T07:07:30;12.90;73.70
30999;DHT22;20549;50.042;8.968;2023-03-19T07:09:57;13.00;73.70
30999;DHT22;20549;50.042;8.968;2023-03-19T07:12:23;13.00;73.70
30999;DHT22;20549;50.042;8.968;2023-03-19T07:14:50;13.10;73.70
30999;DHT22;20549;50.042;8.968;2023-03-19T07:17:17;13.20;73.60
30999;DHT22;20549;50.042;8.968;2023-03-19T07:19:43;13.30;73.60
30999;DHT22;20549;50.042;8.968;2023-03-19T07:22:10;13.30;73.40
30999;DHT22;20549;50.042;8.968;2023-03-19T07:24:36;13.40;73.20
30999;DHT22;20549;50.042;8.968;2023-03-19T07:27:03;13.50;73.30
30999;DHT22;20549;50.042;8.968;2023-03-19T07:29:30;13.50;73.20
30999;DHT22;20549;50.042;8.968;2023-03-19T07:31:56;13.60;73.20
30999;DHT22;20549;50.042;8.968;2023-03-19T07:34:23;13.70;73.20
30999;DHT22;20549;50.042;8.968;2023-03-19T07:36:49;13.80;73.30
30999;DHT22;20549;50.042;8.968;2023-03-19T07:39:16;13.80;73.20
30999;DHT22;20549;50.042;8.968;2023-03-19T07:41:42;13.90;73.20
30999;DHT22;20549;50.042;8.968;2023-03-19T07:44:09;14.00;73.20
30999;DHT22;20549;50.042;8.968;2023-03-19T07:46:36;14.10;73.10
30999;DHT22;20549;50.042;8.968;2023-03-19T07:49:02;14.20;73.00
30999;DHT22;20549;50.042;8.968;2023-03-19T07:51:29;14.30;73.00
30999;DHT22;20549;50.042;8.968;2023-03-19T07:53:55;14.50;73.80
30999;DHT22;20549;50.042;8.968;2023-03-19T07:56:22;14.60;72.90
30999;DHT22;20549;50.042;8.968;2023-03-19T07:58:49;14.80;73.00
30999;DHT22;20549;50.042;8.968;2023-03-19T08:01:15;15.00;73.20
30999;DHT22;20549;50.042;8.968;2023-03-19T08:03:42;15.20;73.50
30999;DHT22;20549;50.042;8.968;2023-03-19T08:06:08;15.50;73.60
30999;DHT22;20549;50.042;8.968;2023-03-19T08:08:35;15.80;73.40
30999;DHT22;20549;50.042;8.968;2023-03-19T08:11:02;16.10;72.90
30999;DHT22;20549;50.042;8.968;2023-03-19T08:13:28;16.40;72.50
30999;DHT22;20549;50.042;8.968;2023-03-19T08:15:55;16.70;72.10
30999;DHT22;20549;50.042;8.968;2023-03-19T08:18:21;17.00;71.70
30999;DHT22;20549;50.042;8.968;2023-03-19T08:20:48;17.40;71.50
30999;DHT22;20549;50.042;8.968;2023-03-19T08:23:16;17.80;71.40
30999;DHT22;20549;50.042;8.968;2023-03-19T08:25:41;18.20;70.60
30999;DHT22;20549;50.042;8.968;2023-03-19T08:28:08;18.60;69.50
30999;DHT22;20549;50.042;8.968;2023-03-19T08:30:37;18.90;68.40
30999;DHT22;20549;50.042;8.968;2023-03-19T08:33:03;19.20;67.40
30999;DHT22;20549;50.042;8.968;2023-03-19T08:35:30;19.40;66.90
30999;DHT22;20549;50.042;8.968;2023-03-19T08:37:56;19.60;66.00
30999;DHT22;20549;50.042;8.968;2023-03-19T08:40:23;19.70;65.40
30999;DHT22;20549;50.042;8.968;2023-03-19T08:42:50;19.80;64.70
30999;DHT22;20549;50.042;8.968;2023-03-19T08:45:16;19.90;64.30
30999;DHT22;20549;50.042;8.968;2023-03-19T08:47:43;19.90;63.90
30999;DHT22;20549;50.042;8.968;2023-03-19T08:50:10;20.00;63.60
30999;DHT22;20549;50.042;8.968;2023-03-19T08:52:36;20.10;63.50
30999;DHT22;20549;50.042;8.968;2023-03-19T08:55:03;20.10;63.00
30999;DHT22;20549;50.042;8.968;2023-03-19T08:57:30;20.10;62.70
30999;DHT22;20549;50.042;8.968;2023-03-19T08:59:56;20.10;62.50
30999;DHT22;20549;50.042;8.968;2023-03-19T09:02:22;20.20;62.40
30999;DHT22;20549;50.042;8.968;2023-03-19T09:04:49;20.10;62.30
30999;DHT22;20549;50.042;8.968;2023-03-19T09:07:16;20.20;62.20
30999;DHT22;20549;50.042;8.968;2023-03-19T09:09:42;20.20;61.80
30999;DHT22;20549;50.042;8.968;2023-03-19T09:12:10;20.30;61.90
30999;DHT22;20549;50.042;8.968;2023-03-19T09:14:35;20.30;61.90
30999;DHT22;20549;50.042;8.968;2023-03-19T09:17:02;20.60;62.40
30999;DHT22;20549;50.042;8.968;2023-03-19T09:19:28;21.00;63.90
30999;DHT22;20549;50.042;8.968;2023-03-19T09:21:55;21.50;65.10
30999;DHT22;20549;50.042;8.968;2023-03-19T09:24:22;22.20;65.20
30999;DHT22;20549;50.042;8.968;2023-03-19T09:26:48;23.00;64.40
30999;DHT22;20549;50.042;8.968;2023-03-19T09:29:15;23.80;63.30
30999;DHT22;20549;50.042;8.968;2023-03-19T09:31:41;24.60;62.00
30999;DHT22;20549;50.042;8.968;2023-03-19T09:34:08;25.40;60.70
30999;DHT22;20549;50.042;8.968;2023-03-19T09:36:35;26.20;59.70
30999;DHT22;20549;50.042;8.968;2023-03-19T09:39:01;26.80;58.50
30999;DHT22;20549;50.042;8.968;2023-03-19T09:41:31;27.30;57.10
30999;DHT22;20549;50.042;8.968;2023-03-19T09:44:01;27.60;55.50
30999;DHT22;20549;50.042;8.968;2023-03-19T09:46:48;27.70;53.70
30999;DHT22;20549;50.042;8.968;2023-03-19T09:56:52;27.50;52.70
30999;DHT22;20549;50.042;8.968;2023-03-19T09:59:20;27.30;52.40
30999;DHT22;20549;50.042;8.968;2023-03-19T10:01:47;27.20;51.60
30999;DHT22;20549;50.042;8.968;2023-03-19T10:04:29;27.00;50.90
30999;DHT22;20549;50.042;8.968;2023-03-19T10:06:50;26.70;50.40
30999;DHT22;20549;50.042;8.968;2023-03-19T10:09:25;26.40;50.30
30999;DHT22;20549;50.042;8.968;2023-03-19T10:17:00;25.40;50.60
30999;DHT22;20549;50.042;8.968;2023-03-19T10:19:38;25.00;50.90
30999;DHT22;20549;50.042;8.968;2023-03-19T10:22:04;24.80;51.10
30999;DHT22;20549;50.042;8.968;2023-03-19T10:24:38;24.60;51.40
30999;DHT22;20549;50.042;8.968;2023-03-19T10:27:08;24.50;51.40
30999;DHT22;20549;50.042;8.968;2023-03-19T10:29:32;24.30;51.40
30999;DHT22;20549;50.042;8.968;2023-03-19T10:32:02;24.20;51.60
30999;DHT22;20549;50.042;8.968;2023-03-19T10:34:34;24.10;51.70
30999;DHT22;20549;50.042;8.968;2023-03-19T10:37:15;23.90;51.90
30999;DHT22;20549;50.042;8.968;2023-03-19T10:39:41;23.80;51.90
30999;DHT22;20549;50.042;8.968;2023-03-19T10:42:22;23.70;52.00
30999;DHT22;20549;50.042;8.968;2023-03-19T10:44:48;23.70;52.00
30999;DHT22;20549;50.042;8.968;2023-03-19T10:47:15;23.50;51.50
30999;DHT22;20549;50.042;8.968;2023-03-19T10:49:41;23.40;52.30
30999;DHT22;20549;50.042;8.968;2023-03-19T10:52:16;23.30;52.20
30999;DHT22;20549;50.042;8.968;2023-03-19T10:54:41;23.20;52.30
30999;DHT22;20549;50.042;8.968;2023-03-19T10:57:17;23.10;52.50
30999;DHT22;20549;50.042;8.968;2023-03-19T10:59:36;23.10;52.30
30999;DHT22;20549;50.042;8.968;2023-03-19T11:03:09;23.00;52.30
30999;DHT22;20549;50.042;8.968;2023-03-19T11:04:38;23.10;52.50
30999;DHT22;20549;50.042;8.968;2023-03-19T11:07:08;23.10;52.60
30999;DHT22;20549;50.042;8.968;2023-03-19T11:09:35;23.10;52.50
30999;DHT22;20549;50.042;8.968;2023-03-19T11:14:48;23.20;52.30
30999;DHT22;20549;50.042;8.968;2023-03-19T11:22:35;23.30;51.80
30999;DHT22;20549;50.042;8.968;2023-03-19T11:25:02;23.30;51.80
30999;DHT22;20549;50.042;8.968;2023-03-19T11:27:28;23.30;51.60
30999;DHT22;20549;50.042;8.968;2023-03-19T11:29:54;23.30;51.60
30999;DHT22;20549;50.042;8.968;2023-03-19T11:32:24;23.30;51.60
30999;DHT22;20549;50.042;8.968;2023-03-19T11:35:10;23.40;51.60
30999;DHT22;20549;50.042;8.968;2023-03-19T11:38:03;23.40;51.40
30999;DHT22;20549;50.042;8.968;2023-03-19T11:40:31;23.40;51.50
30999;DHT22;20549;50.042;8.968;2023-03-19T11:42:55;23.50;51.20
30999;DHT22;20549;50.042;8.968;2023-03-19T11:55:53;23.60;51.10
30999;DHT22;20549;50.042;8.968;2023-03-19T12:00:54;23.50;50.90
30999;DHT22;20549;50.042;8.968;2023-03-19T12:09:03;23.20;51.10
30999;DHT22;20549;50.042;8.968;2023-03-19T12:14:14;23.00;51.10
30999;DHT22;20549;50.042;8.968;2023-03-19T12:22:05;23.00;51.30
30999;DHT22;20549;50.042;8.968;2023-03-19T12:27:34;23.10;51.20
30999;DHT22;20549;50.042;8.968;2023-03-19T12:30:31;23.10;50.90
30999;DHT22;20549;50.042;8.968;2023-03-19T12:35:38;23.20;50.90
30999;DHT22;20549;50.042;8.968;2023-03-19T12:43:09;23.10;50.10
30999;DHT22;20549;50.042;8.968;2023-03-19T12:45:43;23.00;49.80
30999;DHT22;20549;50.042;8.968;2023-03-19T12:48:19;22.90;49.70
30999;DHT22;20549;50.042;8.968;2023-03-19T12:50:44;22.80;49.70
30999;DHT22;20549;50.042;8.968;2023-03-19T12:53:13;22.70;49.90
30999;DHT22;20549;50.042;8.968;2023-03-19T12:55:39;22.70;50.00
30999;DHT22;20549;50.042;8.968;2023-03-19T13:00:33;22.60;50.10
30999;DHT22;20549;50.042;8.968;2023-03-19T13:05:35;22.50;50.20
30999;DHT22;20549;50.042;8.968;2023-03-19T13:08:18;22.50;50.30
30999;DHT22;20549;50.042;8.968;2023-03-19T13:10:42;22.50;50.40
30999;DHT22;20549;50.042;8.968;2023-03-19T13:18:49;22.60;50.30
30999;DHT22;20549;50.042;8.968;2023-03-19T13:21:26;22.70;49.70
30999;DHT22;20549;50.042;8.968;2023-03-19T13:24:22;22.70;50.00
30999;DHT22;20549;50.042;8.968;2023-03-19T13:26:47;22.70;49.90
30999;DHT22;20549;50.042;8.968;2023-03-19T13:29:18;22.60;49.70
30999;DHT22;20549;50.042;8.968;2023-03-19T13:31:42;22.60;49.60
30999;DHT22;20549;50.042;8.968;2023-03-19T13:34:19;22.50;49.60
30999;DHT22;20549;50.042;8.968;2023-03-19T13:36:52;22.50;49.70
30999;DHT22;20549;50.042;8.968;2023-03-19T13:39:17;22.40;49.70
30999;DHT22;20549;50.042;8.968;2023-03-19T13:41:46;22.30;49.70
30999;DHT22;20549;50.042;8.968;2023-03-19T13:44:42;22.30;49.70
30999;DHT22;20549;50.042;8.968;2023-03-19T14:03:23;21.70;49.90
30999;DHT22;20549;50.042;8.968;2023-03-19T14:05:40;21.60;50.00
30999;DHT22;20549;50.042;8.968;2023-03-19T14:08:13;21.50;50.20
30999;DHT22;20549;50.042;8.968;2023-03-19T14:10:44;21.50;50.30
30999;DHT22;20549;50.042;8.968;2023-03-19T14:13:07;21.40;50.50
30999;DHT22;20549;50.042;8.968;2023-03-19T14:15:33;21.40;50.90
30999;DHT22;20549;50.042;8.968;2023-03-19T14:18:02;21.40;51.30
30999;DHT22;20549;50.042;8.968;2023-03-19T14:21:04;21.30;51.60
30999;DHT22;20549;50.042;8.968;2023-03-19T14:36:30;20.90;52.40
30999;DHT22;20549;50.042;8.968;2023-03-19T14:39:06;20.90;52.60
30999;DHT22;20549;50.042;8.968;2023-03-19T14:41:27;20.80;52.60
30999;DHT22;20549;50.042;8.968;2023-03-19T14:44:05;20.80;52.50
30999;DHT22;20549;50.042;8.968;2023-03-19T14:46:27;20.80;52.60
30999;DHT22;20549;50.042;8.968;2023-03-19T14:51:49;20.70;52.60
30999;DHT22;20549;50.042;8.968;2023-03-19T14:54:35;20.70;52.60
30999;DHT22;20549;50.042;8.968;2023-03-19T14:57:04;20.60;53.00
30999;DHT22;20549;50.042;8.968;2023-03-19T14:59:26;20.50;52.80
30999;DHT22;20549;50.042;8.968;2023-03-19T15:01:52;20.50;53.00
30999;DHT22;20549;50.042;8.968;2023-03-19T15:04:22;20.40;53.10
30999;DHT22;20549;50.042;8.968;2023-03-19T15:06:50;20.40;53.30
30999;DHT22;20549;50.042;8.968;2023-03-19T15:09:23;20.40;53.50
30999;DHT22;20549;50.042;8.968;2023-03-19T15:14:24;20.30;54.30
30999;DHT22;20549;50.042;8.968;2023-03-19T15:17:00;20.30;53.70
30999;DHT22;20549;50.042;8.968;2023-03-19T15:19:25;20.20;53.70
30999;DHT22;20549;50.042;8.968;2023-03-19T15:21:51;20.10;53.70
30999;DHT22;20549;50.042;8.968;2023-03-19T15:24:18;20.00;53.80
30999;DHT22;20549;50.042;8.968;2023-03-19T15:26:44;19.90;53.80
30999;DHT22;20549;50.042;8.968;2023-03-19T15:29:11;19.90;53.90
30999;DHT22;20549;50.042;8.968;2023-03-19T15:31:41;19.80;54.00
30999;DHT22;20549;50.042;8.968;2023-03-19T15:34:19;19.70;54.20
30999;DHT22;20549;50.042;8.968;2023-03-19T15:36:45;19.60;54.20
30999;DHT22;20549;50.042;8.968;2023-03-19T15:39:11;19.50;54.20
30999;DHT22;20549;50.042;8.968;2023-03-19T15:41:40;19.40;54.30
30999;DHT22;20549;50.042;8.968;2023-03-19T15:44:05;19.30;54.50
30999;DHT22;20549;50.042;8.968;2023-03-19T15:46:32;19.20;54.60
30999;DHT22;20549;50.042;8.968;2023-03-19T15:49:01;19.10;54.80
30999;DHT22;20549;50.042;8.968;2023-03-19T15:51:24;19.00;54.80
30999;DHT22;20549;50.042;8.968;2023-03-19T15:53:51;19.00;54.90
30999;DHT22;20549;50.042;8.968;2023-03-19T15:56:17;18.90;55.00
30999;DHT22;20549;50.042;8.968;2023-03-19T15:58:45;18.80;55.00
30999;DHT22;20549;50.042;8.968;2023-03-19T16:01:11;18.70;55.10
30999;DHT22;20549;50.042;8.968;2023-03-19T16:03:42;18.60;55.20
30999;DHT22;20549;50.042;8.968;2023-03-19T16:06:04;18.50;55.30
30999;DHT22;20549;50.042;8.968;2023-03-19T16:08:31;18.40;55.60
30999;DHT22;20549;50.042;8.968;2023-03-19T16:11:26;18.30;55.70
30999;DHT22;20549;50.042;8.968;2023-03-19T16:13:58;18.20;55.90
30999;DHT22;20549;50.042;8.968;2023-03-19T16:16:26;18.00;55.90
30999;DHT22;20549;50.042;8.968;2023-03-19T16:18:54;17.90;56.10
30999;DHT22;20549;50.042;8.968;2023-03-19T16:21:35;17.80;56.50
30999;DHT22;20549;50.042;8.968;2023-03-19T16:24:00;17.70;56.60
30999;DHT22;20549;50.042;8.968;2023-03-19T16:26:28;17.60;56.90
30999;DHT22;20549;50.042;8.968;2023-03-19T16:29:16;17.60;57.00
30999;DHT22;20549;50.042;8.968;2023-03-19T16:31:20;17.50;57.20
30999;DHT22;20549;50.042;8.968;2023-03-19T16:33:45;17.50;57.40
30999;DHT22;20549;50.042;8.968;2023-03-19T16:36:12;17.40;57.50
30999;DHT22;20549;50.042;8.968;2023-03-19T16:38:42;17.40;57.60
30999;DHT22;20549;50.042;8.968;2023-03-19T16:41:24;17.40;57.60
30999;DHT22;20549;50.042;8.968;2023-03-19T16:43:50;17.40;57.70
30999;DHT22;20549;50.042;8.968;2023-03-19T16:46:16;17.30;57.90
30999;DHT22;20549;50.042;8.968;2023-03-19T16:48:42;17.30;57.90
30999;DHT22;20549;50.042;8.968;2023-03-19T16:51:15;17.30;58.10
30999;DHT22;20549;50.042;8.968;2023-03-19T16:53:41;17.30;58.10
30999;DHT22;20549;50.042;8.968;2023-03-19T16:56:08;17.20;58.10
30999;DHT22;20549;50.042;8.968;2023-03-19T16:58:35;17.20;58.20
30999;DHT22;20549;50.042;8.968;2023-03-19T17:01:03;17.20;58.30
30999;DHT22;20549;50.042;8.968;2023-03-19T17:03:28;17.20;58.40
30999;DHT22;20549;50.042;8.968;2023-03-19T17:05:54;17.10;58.50
30999;DHT22;20549;50.042;8.968;2023-03-19T17:08:21;17.10;58.50
30999;DHT22;20549;50.042;8.968;2023-03-19T17:10:48;17.00;58.50
30999;DHT22;20549;50.042;8.968;2023-03-19T17:13:21;16.90;58.70
30999;DHT22;20549;50.042;8.968;2023-03-19T17:15:47;16.80;58.80
30999;DHT22;20549;50.042;8.968;2023-03-19T17:18:23;16.80;58.90
30999;DHT22;20549;50.042;8.968;2023-03-19T17:20:41;16.70;59.00